Friday, May 25, 2018, 8:31 PM EDT
Back to Local

KAUG, Augusta State Airport

Location: Augusta, ME, United States Lat: 44.317
Local Time: 8:31 PM EDT ( 0:31 GMT) Lon: -69.8
Time Zone: US/Eastern Elev: 351 ft

Show me the last for .
Show Decoded

2018-05-25 19:53 METAR KAUG 252353Z AUTO 27011G19KT 10SM CLR 26/12 A2966 RMK AO2 SLP041 T02610117
                 10294 20261 53004 =
2018-05-25 18:53 METAR KAUG 252253Z AUTO 28011G16KT 10SM CLR 27/12 A2965 RMK AO2 SLP039 T02670117
                 =
2018-05-25 17:53 METAR KAUG 252153Z AUTO 26011G17KT 10SM FEW075 28/12 A2964 RMK AO2 SLP036
                 T02780117 =
2018-05-25 16:53 METAR KAUG 252053Z AUTO 27017G24KT 10SM OVC080 29/11 A2964 RMK AO2 SLP037
                 T02890111 55010 =
2018-05-25 15:53 METAR KAUG 251953Z AUTO 26008G21KT 10SM BKN090 29/11 A2964 RMK AO2 SLP037
                 T02940106 =
2018-05-25 14:53 METAR KAUG 251853Z AUTO 25014G21KT 10SM CLR 29/11 A2966 RMK AO2 SLP041 T02890106
                 =
2018-05-25 13:53 METAR KAUG 251753Z AUTO 24008KT 10SM CLR 28/11 A2967 RMK AO2 SLP047 T02830111
                 10283 20172 56020 =
2018-05-25 12:53 METAR KAUG 251653Z AUTO 28011G22KT 10SM CLR 28/10 A2969 RMK AO2 SLP053 T02830100
                 =
2018-05-25 11:53 METAR KAUG 251553Z AUTO 26015G23KT 10SM CLR 27/09 A2971 RMK AO2 SLP061 T02720094
                 =
2018-05-25 10:53 METAR KAUG 251453Z AUTO 27012G20KT 230V310 10SM CLR 27/09 A2973 RMK AO2 SLP068
                 T02670094 56018 =
2018-05-25 09:53 METAR KAUG 251353Z AUTO 26010G16KT 10SM CLR 24/10 A2974 RMK AO2 SLP071 T02440100
                 =
2018-05-25 08:53 METAR KAUG 251253Z AUTO 24008KT 200V270 10SM CLR 21/09 A2976 RMK AO2 SLP078
                 T02060094 =
2018-05-25 07:53 METAR KAUG 251153Z AUTO 23007G15KT 10SM CLR 17/08 A2979 RMK AO2 SLP087 T01720083
                 10172 20083 57009 =
2018-05-25 06:53 METAR KAUG 251053Z AUTO 23006KT 10SM CLR 13/08 A2980 RMK AO2 SLP090 T01330083 =
2018-05-25 05:53 METAR KAUG 250953Z AUTO VRB05KT 10SM CLR 10/08 A2981 RMK AO2 SLP094 T01000083 =
2018-05-25 04:53 METAR KAUG 250853Z AUTO VRB06KT 10SM CLR 09/08 A2981 RMK AO2 SLP097 T00890083
                 56029 =
2018-05-25 03:53 METAR KAUG 250753Z AUTO 20004KT 10SM CLR 09/08 A2984 RMK AO2 SLP105 T00890083 =
2018-05-25 02:53 METAR KAUG 250653Z AUTO 20005KT 9SM CLR 09/08 A2986 RMK AO2 SLP112 T00890083 =
2018-05-25 01:53 METAR KAUG 250553Z AUTO 18005KT 10SM CLR 09/08 A2990 RMK AO2 SLP126 T00890083
                 10117 20089 58033 =
2018-05-25 00:53 METAR KAUG 250453Z AUTO 19003KT 10SM CLR 09/08 A2994 RMK AO2 SLP139 T00890078
                 401890078 =
2018-05-24 23:53 METAR KAUG 250353Z AUTO VRB03KT 10SM CLR 09/08 A2998 RMK AO2 SLP151 T00940078 =
2018-05-24 22:53 METAR KAUG 250253Z AUTO VRB03KT 10SM FEW110 09/08 A3000 RMK AO2 SLP160 T00940078
                 58009 =
2018-05-24 21:53 METAR KAUG 250153Z AUTO 17005KT 10SM FEW110 10/07 A3002 RMK AO2 SLP168 T01000072
                 =
2018-05-24 20:53 METAR KAUG 250053Z AUTO VRB06KT 10SM CLR 11/07 A3003 RMK AO2 SLP169 T01060072 =

Support USWX by starting your Amazon purchase here.